createdAt,value
2022-08-05T00:01:48.785Z,100437.69
2022-08-05T00:04:18.413Z,100439.98
2022-08-05T00:06:47.024Z,100441.41
2022-08-05T00:09:15.994Z,100443.38
2022-08-05T00:11:55.695Z,100441.65
2022-08-05T00:14:31.376Z,100440.39
2022-08-05T00:17:01.848Z,100437.88
2022-08-05T00:19:33.191Z,100435.30
2022-08-05T00:22:04.334Z,100434.42
2022-08-05T00:24:32.313Z,100434.80
2022-08-05T00:27:04.754Z,100429.28
2022-08-05T00:29:38.589Z,100426.48
2022-08-05T00:32:13.276Z,100432.73
2022-08-05T00:35:04.856Z,100434.44
2022-08-05T00:37:50.824Z,100433.71
2022-08-05T00:40:28.397Z,100431.08
2022-08-05T00:43:02.713Z,100426.76
2022-08-05T00:45:42.970Z,100423.46
2022-08-05T00:48:15.825Z,100424.09
2022-08-05T00:50:47.369Z,100424.52
2022-08-05T00:54:00.520Z,100420.73
2022-08-05T00:56:07.724Z,100426.79
2022-08-05T00:58:37.063Z,100423.40
2022-08-05T01:01:08.742Z,100419.52
2022-08-05T01:03:39.430Z,100418.42
2022-08-05T01:06:14.193Z,100418.31
2022-08-05T01:08:44.551Z,100418.07
2022-08-05T01:11:37.444Z,100416.05
2022-08-05T01:14:15.302Z,100412.11
2022-08-05T01:17:03.113Z,100412.49
2022-08-05T01:20:30.181Z,100414.11
2022-08-05T01:23:45.069Z,100409.11
2022-08-05T01:26:33.787Z,100412.45
2022-08-05T01:29:13.641Z,100408.37
2022-08-05T01:31:51.497Z,100404.26
2022-08-05T01:34:28.045Z,100406.98
2022-08-05T01:37:24.378Z,100401.26
2022-08-05T01:39:55.068Z,100398.35
2022-08-05T01:42:30.028Z,100397.53
2022-08-05T01:45:02.329Z,100394.83
2022-08-05T01:47:39.200Z,100392.89
2022-08-05T01:50:15.196Z,100395.48
2022-08-05T01:52:50.097Z,100391.50
2022-08-05T01:55:22.360Z,100395.42
2022-08-05T01:58:12.974Z,100391.73
2022-08-05T02:00:49.697Z,100390.69
2022-08-05T02:03:32.059Z,100389.87
2022-08-05T02:06:33.844Z,100382.21
2022-08-05T02:08:58.831Z,100378.89
2022-08-05T02:11:37.548Z,100380.25
2022-08-05T02:14:15.571Z,100380.52
2022-08-05T02:16:52.765Z,100383.58
2022-08-05T02:19:34.568Z,100382.42
2022-08-05T02:22:25.918Z,100382.05
2022-08-05T02:25:08.637Z,100378.82
2022-08-05T02:27:59.273Z,100377.26
2022-08-05T02:30:38.283Z,100374.50
2022-08-05T02:33:24.664Z,100374.02
2022-08-05T02:36:13.704Z,100370.48
2022-08-05T02:38:53.680Z,100368.82
2022-08-05T02:41:28.611Z,100367.65
2022-08-05T02:44:12.386Z,100366.41
2022-08-05T02:46:53.850Z,100365.39
2022-08-05T02:49:42.358Z,100365.31
2022-08-05T02:52:29.952Z,100360.86
2022-08-05T02:55:05.653Z,100363.10
2022-08-05T02:58:10.222Z,100359.25
2022-08-05T03:00:29.987Z,100358.59
2022-08-05T03:02:59.009Z,100360.59
2022-08-05T03:06:55.155Z,100353.96
2022-08-05T03:08:17.485Z,100358.36
2022-08-05T03:11:54.469Z,100356.78
2022-08-05T03:13:51.781Z,100353.96
2022-08-05T03:16:31.634Z,100353.48
2022-08-05T03:19:01.430Z,100353.17
2022-08-05T03:21:41.662Z,100349.57
2022-08-05T03:24:20.201Z,100348.92
2022-08-05T03:27:00.924Z,100352.05
2022-08-05T03:29:45.821Z,100354.80
2022-08-05T03:32:19.425Z,100350.55
2022-08-05T03:34:51.100Z,100349.77
2022-08-05T03:37:21.303Z,100347.43
2022-08-05T03:40:01.518Z,100341.63
2022-08-05T03:42:32.915Z,100345.59
2022-08-05T03:45:21.386Z,100341.52
2022-08-05T03:47:51.933Z,100342.17
2022-08-05T03:50:33.688Z,100341.47
2022-08-05T03:55:00.482Z,100342.02
2022-08-05T03:56:30.718Z,100344.52
2022-08-05T03:59:09.318Z,100345.80
2022-08-05T04:01:42.457Z,100347.13
2022-08-05T04:04:16.820Z,100345.31
2022-08-05T04:06:51.671Z,100341.36
2022-08-05T04:09:26.178Z,100338.12
2022-08-05T04:11:56.954Z,100341.70
2022-08-05T04:14:30.357Z,100338.88
2022-08-05T04:17:00.649Z,100338.87
2022-08-05T04:19:29.572Z,100336.69
2022-08-05T04:22:08.063Z,100340.75
2022-08-05T04:24:44.090Z,100333.98
2022-08-05T04:27:14.114Z,100339.42
2022-08-05T04:29:43.291Z,100335.59
2022-08-05T04:32:11.235Z,100333.90
2022-08-05T04:34:42.913Z,100330.30
2022-08-05T04:37:11.314Z,100332.15
2022-08-05T04:39:40.072Z,100337.23
2022-08-05T04:42:09.154Z,100333.74
2022-08-05T04:44:37.129Z,100336.50
2022-08-05T04:47:09.648Z,100329.96
2022-08-05T04:50:01.823Z,100330.09
2022-08-05T04:52:28.208Z,100330.29
2022-08-05T04:54:57.212Z,100328.35
2022-08-05T04:57:29.161Z,100330.52
2022-08-05T04:59:58.614Z,100329.23
2022-08-05T05:02:37.593Z,100330.73
2022-08-05T05:05:26.376Z,100329.92
2022-08-05T05:08:14.443Z,100326.08
2022-08-05T05:10:56.689Z,100326.15
2022-08-05T05:13:24.503Z,100329.42
2022-08-05T05:15:57.848Z,100328.19
2022-08-05T05:18:33.477Z,100327.63
2022-08-05T05:21:03.922Z,100328.08
2022-08-05T05:24:02.167Z,100326.61
2022-08-05T05:26:28.656Z,100327.98
2022-08-05T05:29:02.232Z,100329.13
2022-08-05T05:34:02.835Z,100321.97
2022-08-05T05:36:31.958Z,100321.23
2022-08-05T05:38:59.921Z,100324.77
2022-08-05T05:41:40.565Z,100321.21
2022-08-05T05:44:35.525Z,100325.14
2022-08-05T05:47:04.220Z,100320.98
2022-08-05T05:49:33.066Z,100325.56
2022-08-05T05:52:06.033Z,100325.69
2022-08-05T05:54:50.835Z,100323.77
2022-08-05T05:57:20.112Z,100323.82
2022-08-05T05:59:48.798Z,100320.50
2022-08-05T06:02:17.163Z,100324.58
2022-08-05T06:05:07.783Z,100324.61
2022-08-05T06:07:41.289Z,100324.17
2022-08-05T06:10:11.032Z,100322.17
2022-08-05T06:12:42.100Z,100323.73
2022-08-05T06:15:16.547Z,100319.20
2022-08-05T06:17:53.010Z,100320.48
2022-08-05T06:20:21.923Z,100323.89
2022-08-05T06:22:49.930Z,100327.18
2022-08-05T06:25:24.257Z,100328.09
2022-08-05T06:28:10.812Z,100325.66
2022-08-05T06:30:40.696Z,100328.60
2022-08-05T06:33:10.001Z,100320.19
2022-08-05T06:36:08.210Z,100324.23
2022-08-05T06:38:35.826Z,100321.10
2022-08-05T06:41:08.191Z,100320.65
2022-08-05T06:43:57.634Z,100319.38
2022-08-05T06:46:30.076Z,100319.69
2022-08-05T06:49:01.068Z,100317.50
2022-08-05T06:51:31.204Z,100316.34
2022-08-05T06:54:01.941Z,100314.25
2022-08-05T06:56:33.857Z,100311.11
2022-08-05T06:59:09.441Z,100309.44
2022-08-05T07:01:42.340Z,100308.09
2022-08-05T07:04:10.713Z,100309.56
2022-08-05T07:06:42.241Z,100304.05
2022-08-05T07:09:09.991Z,100303.02
2022-08-05T07:11:39.726Z,100301.60
2022-08-05T07:14:29.808Z,100299.76
2022-08-05T07:17:58.405Z,100297.97
2022-08-05T07:22:42.108Z,100300.54
2022-08-05T07:25:54.969Z,100302.33
2022-08-05T07:28:04.229Z,100304.33
2022-08-05T07:30:39.084Z,100302.66
2022-08-05T07:33:16.650Z,100299.19
2022-08-05T07:36:02.517Z,100298.42
2022-08-05T07:38:43.167Z,100298.70
2022-08-05T07:42:13.453Z,100294.35
2022-08-05T07:44:14.359Z,100294.67
2022-08-05T07:46:49.700Z,100291.65
2022-08-05T07:49:20.534Z,100290.55
2022-08-05T07:51:53.023Z,100291.92
2022-08-05T07:54:31.267Z,100289.88
2022-08-05T07:57:17.679Z,100299.48
2022-08-05T07:59:51.654Z,100303.54
2022-08-05T08:02:31.182Z,100302.60
2022-08-05T08:05:17.483Z,100304.11
2022-08-05T08:08:00.129Z,100300.98
2022-08-05T08:10:29.523Z,100303.50
2022-08-05T08:12:58.548Z,100305.45
2022-08-05T08:16:33.317Z,100303.84
2022-08-05T08:18:14.720Z,100300.48
2022-08-05T08:21:03.071Z,100297.95
2022-08-05T08:24:01.455Z,100293.90
2022-08-05T08:26:26.733Z,100287.17
2022-08-05T08:29:29.488Z,100286.04
2022-08-05T08:31:50.819Z,100280.34
2022-08-05T08:34:30.166Z,100277.60
2022-08-05T08:37:03.394Z,100274.67
2022-08-05T08:39:37.153Z,100278.27
2022-08-05T08:42:34.160Z,100278.27
2022-08-05T08:45:17.761Z,100279.57
2022-08-05T08:48:10.469Z,100276.56
2022-08-05T08:51:04.126Z,100271.63
2022-08-05T08:53:38.168Z,100271.44
2022-08-05T08:56:12.629Z,100270.67
2022-08-05T08:58:48.022Z,100268.98
2022-08-05T09:01:19.711Z,100265.64
2022-08-05T09:03:55.496Z,100262.73
2022-08-05T09:06:29.914Z,100260.75
2022-08-05T09:09:01.507Z,100264.42
2022-08-05T09:11:51.393Z,100262.50
2022-08-05T09:14:57.765Z,100263.60
2022-08-05T09:17:15.958Z,100259.59
2022-08-05T09:20:05.032Z,100260.52
2022-08-05T09:23:37.453Z,100258.70
2022-08-05T09:26:21.121Z,100259.52
2022-08-05T09:28:55.403Z,100258.38
2022-08-05T09:32:39.967Z,100257.53
2022-08-05T09:34:13.717Z,100256.97
2022-08-05T09:36:54.700Z,100251.96
2022-08-05T09:39:39.114Z,100247.59
2022-08-05T09:42:23.642Z,100246.82
2022-08-05T09:45:03.195Z,100244.95
2022-08-05T09:47:55.079Z,100243.20
2022-08-05T09:50:37.640Z,100246.30
2022-08-05T09:53:06.090Z,100242.31
2022-08-05T09:55:57.298Z,100240.58
2022-08-05T09:58:29.222Z,100235.31
2022-08-05T10:01:02.160Z,100232.83
2022-08-05T10:04:00.627Z,100229.48
2022-08-05T10:06:29.345Z,100230.69
2022-08-05T10:09:27.239Z,100230.31
2022-08-05T10:12:31.020Z,100234.96
2022-08-05T10:15:21.638Z,100222.45
2022-08-05T10:18:17.418Z,100224.33
2022-08-05T10:20:54.280Z,100221.73
2022-08-05T10:23:56.412Z,100218.61
2022-08-05T10:26:32.598Z,100209.58
2022-08-05T10:29:02.571Z,100205.74
2022-08-05T10:32:53.998Z,100198.04
2022-08-05T10:34:25.756Z,100196.84
2022-08-05T10:36:59.626Z,100197.39
2022-08-05T10:39:59.260Z,100194.88
2022-08-05T10:42:32.582Z,100188.94
2022-08-05T10:45:21.426Z,100191.23
2022-08-05T10:48:31.079Z,100197.23
2022-08-05T10:51:22.191Z,100193.34
2022-08-05T10:53:50.546Z,100196.48
2022-08-05T10:56:25.963Z,100192.33
2022-08-05T10:58:53.863Z,100196.33
2022-08-05T11:01:55.644Z,100189.88
2022-08-05T11:04:26.129Z,100193.38
2022-08-05T11:07:01.452Z,100190.41
2022-08-05T11:10:09.538Z,100186.44
2022-08-05T11:12:38.421Z,100180.46
2022-08-05T11:15:19.647Z,100181.60
2022-08-05T11:18:00.216Z,100177.83
2022-08-05T11:20:41.776Z,100175.16
2022-08-05T11:24:03.997Z,100176.27
2022-08-05T11:26:34.742Z,100173.89
2022-08-05T11:29:13.245Z,100166.58
2022-08-05T11:31:56.714Z,100165.90
2022-08-05T11:34:51.051Z,100164.70
2022-08-05T11:38:30.517Z,100163.26
2022-08-05T11:41:35.122Z,100165.61
2022-08-05T11:44:06.504Z,100164.77
2022-08-05T11:47:09.868Z,100162.45
2022-08-05T11:49:28.609Z,100164.91
2022-08-05T11:51:57.681Z,100164.37
2022-08-05T11:54:34.525Z,100166.50
2022-08-05T11:57:07.926Z,100163.66
2022-08-05T11:59:50.065Z,100166.14
2022-08-05T12:02:30.935Z,100163.70
2022-08-05T12:05:07.405Z,100163.80
2022-08-05T12:08:03.732Z,100156.26
2022-08-05T12:10:43.549Z,100159.98
2022-08-05T12:13:27.987Z,100148.74
2022-08-05T12:16:14.923Z,100149.66
2022-08-05T12:18:49.554Z,100154.70
2022-08-05T12:21:39.187Z,100149.96
2022-08-05T12:24:11.421Z,100149.19
2022-08-05T12:26:44.037Z,100147.14
2022-08-05T12:29:17.771Z,100145.48
2022-08-05T12:31:54.215Z,100143.24
2022-08-05T12:34:31.729Z,100137.67
2022-08-05T12:37:22.781Z,100135.86
2022-08-05T12:40:03.640Z,100132.77
2022-08-05T12:42:40.174Z,100134.36
2022-08-05T12:45:10.475Z,100130.95
2022-08-05T12:47:38.541Z,100127.60
2022-08-05T12:50:17.117Z,100124.42
2022-08-05T12:53:01.201Z,100115.73
2022-08-05T12:55:32.626Z,100118.09
2022-08-05T12:58:50.934Z,100118.02
2022-08-05T13:02:04.443Z,100119.52
2022-08-05T13:03:43.144Z,100120.99
2022-08-05T13:06:17.661Z,100123.24
2022-08-05T13:08:50.819Z,100119.75
2022-08-05T13:11:59.760Z,100117.94
2022-08-05T13:14:24.870Z,100119.34
2022-08-05T13:17:31.408Z,100114.73
2022-08-05T13:20:20.371Z,100112.70
2022-08-05T13:22:52.584Z,100108.43
2022-08-05T13:25:22.218Z,100110.55
2022-08-05T13:28:10.590Z,100100.39
2022-08-05T13:30:39.053Z,100096.29
2022-08-05T13:33:07.476Z,100097.41
2022-08-05T13:35:47.637Z,100094.84
2022-08-05T13:38:30.459Z,100082.63
2022-08-05T13:41:00.187Z,100088.85
2022-08-05T13:43:45.377Z,100089.05
2022-08-05T13:46:30.858Z,100083.12
2022-08-05T13:49:10.387Z,100084.74
2022-08-05T13:51:46.451Z,100078.47
2022-08-05T13:54:24.815Z,100079.06
2022-08-05T13:56:53.875Z,100077.02
2022-08-05T13:59:24.818Z,100083.20
2022-08-05T14:02:00.405Z,100078.93
2022-08-05T14:04:53.724Z,100066.27
2022-08-05T14:08:00.138Z,100065.38
2022-08-05T14:10:28.442Z,100062.59
2022-08-05T14:12:57.550Z,100056.90
2022-08-05T14:16:07.072Z,100064.86
2022-08-05T14:18:18.189Z,100061.83
2022-08-05T14:20:48.351Z,100064.54
2022-08-05T14:23:24.009Z,100059.00
2022-08-05T14:25:58.629Z,100057.88
2022-08-05T14:28:29.125Z,100047.32
2022-08-05T14:30:59.013Z,100047.56
2022-08-05T14:33:26.866Z,100051.10
2022-08-05T14:35:54.937Z,100046.91
2022-08-05T14:38:33.242Z,100046.91
2022-08-05T14:41:06.357Z,100047.20
2022-08-05T14:44:02.083Z,100046.95
2022-08-05T14:46:28.945Z,100048.17
2022-08-05T14:49:06.266Z,100045.56
2022-08-05T14:51:38.987Z,100050.36
2022-08-05T14:54:28.367Z,100049.66
2022-08-05T14:56:59.017Z,100046.99
2022-08-05T14:59:29.329Z,100045.65
2022-08-05T15:02:24.867Z,100044.16
2022-08-05T15:04:52.906Z,100038.26
2022-08-05T15:08:11.201Z,100040.67
2022-08-05T15:10:09.802Z,100038.09
2022-08-05T15:12:58.008Z,100035.81
2022-08-05T15:15:55.222Z,100030.51
2022-08-05T15:18:17.317Z,100032.61
2022-08-05T15:20:46.027Z,100034.59
2022-08-05T15:23:14.839Z,100032.02
2022-08-05T15:25:52.205Z,100028.86
2022-08-05T15:28:27.300Z,100029.77
2022-08-05T15:30:56.760Z,100027.37
2022-08-05T15:34:05.214Z,100027.06
2022-08-05T15:36:17.278Z,100025.84
2022-08-05T15:41:00.359Z,100019.19
2022-08-05T15:41:56.191Z,100022.59
2022-08-05T15:44:30.262Z,100019.11
2022-08-05T15:47:01.770Z,100020.73
2022-08-05T15:49:53.275Z,100020.60
2022-08-05T15:52:51.751Z,100017.73
2022-08-05T15:55:16.268Z,100015.34
2022-08-05T15:57:45.813Z,100020.77
2022-08-05T16:00:26.297Z,100040.11
2022-08-05T16:03:00.795Z,100052.11
2022-08-05T16:05:30.273Z,100061.08
2022-08-05T16:07:58.616Z,100080.14
2022-08-05T16:10:27.993Z,100080.81
2022-08-05T16:12:57.128Z,100085.36
2022-08-05T16:15:24.935Z,100087.18
2022-08-05T16:18:00.616Z,100088.55
2022-08-05T16:20:32.422Z,100093.30
2022-08-05T16:23:00.906Z,100098.10
2022-08-05T16:25:32.140Z,100103.11
2022-08-05T16:28:09.749Z,100109.16
2022-08-05T16:30:38.383Z,100120.08
2022-08-05T16:33:06.721Z,100121.79
2022-08-05T16:35:42.967Z,100132.41
2022-08-05T16:38:18.360Z,100133.39
2022-08-05T16:41:00.231Z,100148.25
2022-08-05T16:43:35.031Z,100158.06
2022-08-05T16:46:24.623Z,100160.55
2022-08-05T16:48:52.868Z,100171.31
2022-08-05T16:51:20.800Z,100175.06
2022-08-05T16:54:05.025Z,100178.60
2022-08-05T16:56:41.745Z,100181.22
2022-08-05T16:59:10.430Z,100185.52
2022-08-05T17:01:54.364Z,100202.92
2022-08-05T17:04:28.210Z,100208.95
2022-08-05T17:07:01.122Z,100213.43
2022-08-05T17:09:30.258Z,100220.98
2022-08-05T17:11:59.369Z,100229.20
2022-08-05T17:14:36.876Z,100240.94
2022-08-05T17:17:14.305Z,100258.55
2022-08-05T17:19:46.104Z,100266.84
2022-08-05T17:22:24.791Z,100273.61
2022-08-05T17:24:58.781Z,100286.10
2022-08-05T17:27:34.239Z,100287.45
2022-08-05T17:30:07.102Z,100301.17
2022-08-05T17:32:42.004Z,100300.92
2022-08-05T17:35:12.232Z,100295.81
2022-08-05T17:37:45.420Z,100295.52
2022-08-05T17:40:22.622Z,100278.23
2022-08-05T17:42:52.921Z,100272.34
2022-08-05T17:45:24.979Z,100276.66
2022-08-05T17:47:56.107Z,100283.78
2022-08-05T17:50:28.475Z,100286.92
2022-08-05T17:53:05.128Z,100285.04
2022-08-05T17:55:37.170Z,100288.48
2022-08-05T17:58:13.376Z,100292.56
2022-08-05T18:00:47.519Z,100296.65
2022-08-05T18:03:55.953Z,100292.65
2022-08-05T18:06:11.346Z,100288.84
2022-08-05T18:08:44.518Z,100288.30
2022-08-05T18:11:24.293Z,100296.40
2022-08-05T18:14:04.414Z,100301.59
2022-08-05T18:16:46.806Z,100307.04
2022-08-05T18:19:22.924Z,100312.30
2022-08-05T18:22:09.520Z,100321.45
2022-08-05T18:24:40.089Z,100324.25
2022-08-05T18:27:12.612Z,100329.16
2022-08-05T18:29:53.584Z,100322.92
2022-08-05T18:32:27.820Z,100324.25
2022-08-05T18:34:57.831Z,100329.50
2022-08-05T18:37:34.696Z,100335.23
2022-08-05T18:40:57.471Z,100332.98
2022-08-05T18:42:58.829Z,100331.44
2022-08-05T18:45:41.649Z,100339.94
2022-08-05T18:48:11.878Z,100343.09
2022-08-05T18:52:04.543Z,100344.39
2022-08-05T18:53:51.711Z,100351.79
2022-08-05T18:56:21.678Z,100353.40
2022-08-05T18:58:55.018Z,100347.60
2022-08-05T19:01:47.830Z,100348.48
2022-08-05T19:04:24.154Z,100349.55
2022-08-05T19:06:53.458Z,100354.74
2022-08-05T19:09:21.858Z,100360.67
2022-08-05T19:11:59.828Z,100369.45
2022-08-05T19:14:52.397Z,100376.17
2022-08-05T19:17:18.485Z,100368.95
2022-08-05T19:19:48.709Z,100382.34
2022-08-05T19:22:17.729Z,100389.16
2022-08-05T19:24:55.952Z,100386.77
2022-08-05T19:27:30.499Z,100388.30
2022-08-05T19:29:58.935Z,100389.45
2022-08-05T19:32:27.929Z,100397.84
2022-08-05T19:34:57.924Z,100399.52
2022-08-05T19:37:29.848Z,100400.35
2022-08-05T19:40:15.670Z,100404.41
2022-08-05T19:43:00.932Z,100405.84
2022-08-05T19:45:36.265Z,100409.57
2022-08-05T19:48:06.222Z,100414.84
2022-08-05T19:50:35.053Z,100413.75
2022-08-05T19:53:09.332Z,100412.27
2022-08-05T19:56:13.829Z,100415.34
2022-08-05T19:58:29.557Z,100410.83
2022-08-05T20:00:58.833Z,100420.15
2022-08-05T20:03:27.498Z,100415.67
2022-08-05T20:06:11.712Z,100410.73
2022-08-05T20:08:47.570Z,100406.33
2022-08-05T20:11:18.146Z,100417.77
2022-08-05T20:13:58.744Z,100420.73
2022-08-05T20:16:35.393Z,100427.50
2022-08-05T20:19:04.024Z,100431.88
2022-08-05T20:21:32.212Z,100427.79
2022-08-05T20:24:01.167Z,100429.64
2022-08-05T20:26:29.456Z,100421.66
2022-08-05T20:29:00.513Z,100429.77
2022-08-05T20:31:42.855Z,100431.62
2022-08-05T20:34:17.083Z,100434.89
2022-08-05T20:36:44.868Z,100445.52
2022-08-05T20:39:16.713Z,100448.21
2022-08-05T20:41:47.742Z,100451.70
2022-08-05T20:44:29.842Z,100451.80
2022-08-05T20:47:03.132Z,100451.94
2022-08-05T20:49:33.296Z,100460.70
2022-08-05T20:52:05.909Z,100468.60
2022-08-05T20:54:55.114Z,100469.40
2022-08-05T20:57:41.745Z,100473.23
2022-08-05T21:00:36.386Z,100478.05
2022-08-05T21:03:06.800Z,100482.57
2022-08-05T21:05:53.709Z,100485.95
2022-08-05T21:08:28.005Z,100492.09
2022-08-05T21:11:09.950Z,100494.91
2022-08-05T21:13:55.840Z,100498.45
2022-08-05T21:16:30.013Z,100501.96
2022-08-05T21:19:01.063Z,100499.54
2022-08-05T21:21:39.240Z,100493.64
2022-08-05T21:24:15.571Z,100490.17
2022-08-05T21:26:48.591Z,100492.93
2022-08-05T21:29:26.582Z,100499.95
2022-08-05T21:32:02.828Z,100502.60
2022-08-05T21:34:31.614Z,100507.19
2022-08-05T21:37:00.969Z,100518.61
2022-08-05T21:39:29.971Z,100528.77
2022-08-05T21:42:01.184Z,100539.60
2022-08-05T21:44:31.968Z,100541.95
2022-08-05T21:47:00.333Z,100543.25
2022-08-05T21:49:48.195Z,100544.96
2022-08-05T21:52:27.009Z,100542.42
2022-08-05T21:55:06.029Z,100548.02
2022-08-05T21:57:37.590Z,100552.89
2022-08-05T22:00:12.778Z,100563.15
2022-08-05T22:02:42.718Z,100569.17
2022-08-05T22:05:12.279Z,100571.38
2022-08-05T22:07:58.176Z,100579.60
2022-08-05T22:10:27.992Z,100580.52
2022-08-05T22:12:57.852Z,100587.56
2022-08-05T22:16:02.690Z,100591.98
2022-08-05T22:18:15.534Z,100593.86
2022-08-05T22:20:47.415Z,100596.04
2022-08-05T22:24:03.359Z,100594.05
2022-08-05T22:26:49.763Z,100597.09
2022-08-05T22:29:26.632Z,100597.12
2022-08-05T22:31:59.472Z,100596.55
2022-08-05T22:34:32.680Z,100603.56
2022-08-05T22:37:00.993Z,100602.03
2022-08-05T22:39:34.534Z,100600.38
2022-08-05T22:42:09.219Z,100601.84
2022-08-05T22:44:48.552Z,100600.23
2022-08-05T22:47:29.115Z,100592.88
2022-08-05T22:50:20.285Z,100607.41
2022-08-05T22:52:52.607Z,100616.06
2022-08-05T22:55:24.411Z,100619.73
2022-08-05T22:57:55.010Z,100619.69
2022-08-05T23:00:23.793Z,100630.48
2022-08-05T23:02:53.538Z,100629.52
2022-08-05T23:05:22.876Z,100627.02
2022-08-05T23:07:52.021Z,100627.88
2022-08-05T23:10:23.577Z,100618.48
2022-08-05T23:12:54.284Z,100610.01
2022-08-05T23:15:29.849Z,100611.94
2022-08-05T23:18:11.373Z,100613.31
2022-08-05T23:20:39.837Z,100617.30
2022-08-05T23:23:08.819Z,100622.54
2022-08-05T23:25:50.869Z,100622.58
2022-08-05T23:28:29.168Z,100629.89
2022-08-05T23:31:16.656Z,100633.30
2022-08-05T23:34:06.178Z,100642.05
2022-08-05T23:36:40.274Z,100652.60
2022-08-05T23:39:16.605Z,100658.64
2022-08-05T23:41:52.322Z,100664.52
2022-08-05T23:44:25.005Z,100666.27
2022-08-05T23:46:56.072Z,100672.96
2022-08-05T23:49:33.964Z,100680.30
2022-08-05T23:52:25.302Z,100677.98
2022-08-05T23:54:58.661Z,100675.31
2022-08-05T23:57:28.262Z,100678.47
